首页
METAR-TAF:

METAR-TAF

机场 :

科托卡国际机场

阿克拉, 加纳

纬度: 05-36N, 经度: 000-10W, 海拔: 68米

当前天气观测

该预报发布于28分钟前的08:00 UTC
风速14节,风向西
温度 25°C
湿度 83%
气压 1015 hPa
能见度10公里或以上
散云层高于1400英尺

METAR: DGAA 200800Z 26014KT 9999 SCT014 25/22 Q1015 NOSIG

时间: 08:28 (08:28 UTC)

预报

该预报发布于3小时和28分钟前的05:00 UTC
预报有效从20日的 06点(UTC)到 21日的 12点(UTC)
风速15节,风向西
能见度10公里或以上
散云层高于1400英尺
几率 30%
从 20日的 06点(UTC)到 20日的 10点(UTC)
能見度: 5000
轻雾
成为
从 20日的 11点(UTC)到 20日的 13点(UTC)
风速15节,风向南转西南
成为
从 20日的 17点(UTC)到 20日的 19点(UTC)
多云层高于1400英尺

TAF: DGAA 200500Z 2006/2112 26015KT 9999 SCT014 PROB30 2006/2010 5000 BR BECMG 2011/2013 20015KT BECMG 2017/2019 BKN014

超过4000个机场的气象观测和天气预报(METAR&TAF报告)。

可查询的气象台以黄色和红色小点在地图上表示。

将鼠标移到小点上方,可查看气象台名称。

然后点击查看天气观测和预报。

如需切换地图:点击带黑十字的绿色按钮放大地图;点击带横线的绿色按钮缩小地图;或者点击绿色箭头查看邻近地区的地图。


METAR-TAF: